sensor_id;sensor_type;location;lat;lon;timestamp;P1;durP1;ratioP1;P2;durP2;ratioP2
35552;SDS011;21656;46.054;13.614;2023-02-11T07:20:51;30.48;;;12.40;;
35552;SDS011;21656;46.054;13.614;2023-02-11T07:23:16;26.95;;;12.98;;
35552;SDS011;21656;46.054;13.614;2023-02-11T07:25:41;30.70;;;12.38;;
35552;SDS011;21656;46.054;13.614;2023-02-11T07:28:07;26.08;;;12.02;;
35552;SDS011;21656;46.054;13.614;2023-02-11T07:30:32;27.10;;;13.43;;
35552;SDS011;21656;46.054;13.614;2023-02-11T07:32:58;28.75;;;13.75;;
35552;SDS011;21656;46.054;13.614;2023-02-11T07:35:23;25.70;;;13.00;;
35552;SDS011;21656;46.054;13.614;2023-02-11T07:37:49;28.05;;;12.45;;
35552;SDS011;21656;46.054;13.614;2023-02-11T07:40:14;25.90;;;11.70;;
35552;SDS011;21656;46.054;13.614;2023-02-11T07:42:39;31.77;;;14.52;;
35552;SDS011;21656;46.054;13.614;2023-02-11T07:45:05;30.75;;;12.20;;
35552;SDS011;21656;46.054;13.614;2023-02-11T07:47:32;25.65;;;11.85;;
35552;SDS011;21656;46.054;13.614;2023-02-11T07:49:59;21.92;;;11.18;;
35552;SDS011;21656;46.054;13.614;2023-02-11T07:52:24;25.50;;;11.48;;
35552;SDS011;21656;46.054;13.614;2023-02-11T07:54:51;27.30;;;12.80;;
35552;SDS011;21656;46.054;13.614;2023-02-11T07:57:16;21.23;;;10.95;;
35552;SDS011;21656;46.054;13.614;2023-02-11T07:59:41;26.42;;;10.55;;
35552;SDS011;21656;46.054;13.614;2023-02-11T08:02:07;22.48;;;11.18;;
35552;SDS011;21656;46.054;13.614;2023-02-11T08:04:33;22.70;;;11.73;;
35552;SDS011;21656;46.054;13.614;2023-02-11T08:06:58;26.88;;;10.73;;
35552;SDS011;21656;46.054;13.614;2023-02-11T08:09:24;23.73;;;11.15;;
35552;SDS011;21656;46.054;13.614;2023-02-11T08:11:49;24.52;;;11.80;;
35552;SDS011;21656;46.054;13.614;2023-02-11T08:14:14;23.73;;;11.45;;
35552;SDS011;21656;46.054;13.614;2023-02-11T08:16:40;28.48;;;11.70;;
35552;SDS011;21656;46.054;13.614;2023-02-11T08:19:07;22.63;;;10.77;;
35552;SDS011;21656;46.054;13.614;2023-02-11T08:21:35;20.15;;;10.25;;
35552;SDS011;21656;46.054;13.614;2023-02-11T08:24:01;23.85;;;11.45;;
35552;SDS011;21656;46.054;13.614;2023-02-11T08:26:28;23.33;;;11.40;;
35552;SDS011;21656;46.054;13.614;2023-02-11T08:28:56;20.50;;;10.32;;
35552;SDS011;21656;46.054;13.614;2023-02-11T08:31:23;24.88;;;10.07;;
35552;SDS011;21656;46.054;13.614;2023-02-11T08:33:50;19.27;;;10.18;;
35552;SDS011;21656;46.054;13.614;2023-02-11T08:36:19;25.88;;;11.02;;
35552;SDS011;21656;46.054;13.614;2023-02-11T08:38:47;27.25;;;10.60;;
35552;SDS011;21656;46.054;13.614;2023-02-11T08:41:13;24.70;;;11.95;;
35552;SDS011;21656;46.054;13.614;2023-02-11T08:43:39;28.15;;;12.85;;
35552;SDS011;21656;46.054;13.614;2023-02-11T08:46:06;22.60;;;10.75;;
35552;SDS011;21656;46.054;13.614;2023-02-11T08:48:32;21.90;;;10.63;;
35552;SDS011;21656;46.054;13.614;2023-02-11T08:50:57;23.60;;;12.07;;
35552;SDS011;21656;46.054;13.614;2023-02-11T08:53:23;20.33;;;11.50;;
35552;SDS011;21656;46.054;13.614;2023-02-11T08:55:49;22.40;;;11.32;;
35552;SDS011;21656;46.054;13.614;2023-02-11T08:58:16;20.83;;;10.90;;
35552;SDS011;21656;46.054;13.614;2023-02-11T09:00:42;25.92;;;11.73;;
35552;SDS011;21656;46.054;13.614;2023-02-11T09:03:09;19.90;;;10.57;;
35552;SDS011;21656;46.054;13.614;2023-02-11T09:05:39;20.85;;;9.98;;
35552;SDS011;21656;46.054;13.614;2023-02-11T09:08:05;21.45;;;9.93;;
35552;SDS011;21656;46.054;13.614;2023-02-11T09:10:31;19.77;;;9.70;;
35552;SDS011;21656;46.054;13.614;2023-02-11T09:12:57;19.30;;;10.63;;
35552;SDS011;21656;46.054;13.614;2023-02-11T09:15:22;20.50;;;10.02;;
35552;SDS011;21656;46.054;13.614;2023-02-11T09:17:47;24.23;;;9.45;;
35552;SDS011;21656;46.054;13.614;2023-02-11T09:20:14;18.52;;;9.93;;
35552;SDS011;21656;46.054;13.614;2023-02-11T09:22:39;15.05;;;8.05;;
35552;SDS011;21656;46.054;13.614;2023-02-11T09:25:05;27.27;;;10.82;;
35552;SDS011;21656;46.054;13.614;2023-02-11T09:27:32;15.30;;;8.85;;
35552;SDS011;21656;46.054;13.614;2023-02-11T09:29:59;21.50;;;10.18;;
35552;SDS011;21656;46.054;13.614;2023-02-11T09:32:24;21.40;;;11.13;;
35552;SDS011;21656;46.054;13.614;2023-02-11T09:34:50;24.52;;;13.80;;
35552;SDS011;21656;46.054;13.614;2023-02-11T09:37:15;22.42;;;10.90;;
35552;SDS011;21656;46.054;13.614;2023-02-11T09:39:41;16.90;;;9.63;;
35552;SDS011;21656;46.054;13.614;2023-02-11T09:42:17;19.60;;;9.70;;
35552;SDS011;21656;46.054;13.614;2023-02-11T09:45:04;20.10;;;9.93;;
35552;SDS011;21656;46.054;13.614;2023-02-11T09:47:35;15.15;;;8.80;;
35552;SDS011;21656;46.054;13.614;2023-02-11T09:50:17;22.23;;;9.38;;
35552;SDS011;21656;46.054;13.614;2023-02-11T09:55:38;19.85;;;10.30;;
35552;SDS011;21656;46.054;13.614;2023-02-11T09:58:13;19.88;;;9.32;;
35552;SDS011;21656;46.054;13.614;2023-02-11T10:00:44;22.67;;;10.00;;
35552;SDS011;21656;46.054;13.614;2023-02-11T10:03:22;18.98;;;10.45;;
35552;SDS011;21656;46.054;13.614;2023-02-11T10:15:12;22.10;;;10.52;;
35552;SDS011;21656;46.054;13.614;2023-02-11T10:20:38;15.95;;;9.35;;
35552;SDS011;21656;46.054;13.614;2023-02-11T10:23:09;17.67;;;10.17;;
35552;SDS011;21656;46.054;13.614;2023-02-11T10:25:42;24.83;;;10.32;;
35552;SDS011;21656;46.054;13.614;2023-02-11T10:28:15;19.88;;;10.48;;
35552;SDS011;21656;46.054;13.614;2023-02-11T10:30:45;18.23;;;8.95;;
35552;SDS011;21656;46.054;13.614;2023-02-11T10:35:58;18.17;;;8.90;;
35552;SDS011;21656;46.054;13.614;2023-02-11T10:38:24;20.80;;;9.00;;
35552;SDS011;21656;46.054;13.614;2023-02-11T10:40:51;18.95;;;9.48;;
35552;SDS011;21656;46.054;13.614;2023-02-11T10:43:18;17.55;;;8.70;;
35552;SDS011;21656;46.054;13.614;2023-02-11T10:45:47;16.42;;;8.32;;
35552;SDS011;21656;46.054;13.614;2023-02-11T10:53:50;17.33;;;9.27;;
35552;SDS011;21656;46.054;13.614;2023-02-11T10:56:49;18.50;;;9.82;;
35552;SDS011;21656;46.054;13.614;2023-02-11T10:59:29;17.05;;;8.77;;
35552;SDS011;21656;46.054;13.614;2023-02-11T11:01:59;14.60;;;8.35;;
35552;SDS011;21656;46.054;13.614;2023-02-11T11:06:53;19.27;;;9.73;;
35552;SDS011;21656;46.054;13.614;2023-02-11T11:09:29;20.67;;;9.70;;
35552;SDS011;21656;46.054;13.614;2023-02-11T11:12:17;16.40;;;9.00;;
35552;SDS011;21656;46.054;13.614;2023-02-11T11:17:35;18.25;;;9.30;;
35552;SDS011;21656;46.054;13.614;2023-02-11T11:20:12;17.00;;;8.18;;
35552;SDS011;21656;46.054;13.614;2023-02-11T11:22:40;15.15;;;7.82;;
35552;SDS011;21656;46.054;13.614;2023-02-11T11:25:23;15.90;;;8.45;;
35552;SDS011;21656;46.054;13.614;2023-02-11T11:27:52;17.75;;;8.27;;
35552;SDS011;21656;46.054;13.614;2023-02-11T11:30:21;13.98;;;8.38;;
35552;SDS011;21656;46.054;13.614;2023-02-11T11:32:51;14.45;;;8.27;;
35552;SDS011;21656;46.054;13.614;2023-02-11T11:35:20;19.13;;;8.05;;
35552;SDS011;21656;46.054;13.614;2023-02-11T11:37:54;14.73;;;8.90;;
35552;SDS011;21656;46.054;13.614;2023-02-11T11:40:26;14.88;;;8.00;;
35552;SDS011;21656;46.054;13.614;2023-02-11T11:45:29;14.00;;;7.47;;
35552;SDS011;21656;46.054;13.614;2023-02-11T11:47:55;13.32;;;7.30;;
35552;SDS011;21656;46.054;13.614;2023-02-11T11:52:59;16.23;;;8.68;;
35552;SDS011;21656;46.054;13.614;2023-02-11T11:58:09;15.73;;;8.20;;
35552;SDS011;21656;46.054;13.614;2023-02-11T12:07:04;13.20;;;7.68;;
35552;SDS011;21656;46.054;13.614;2023-02-11T12:35:39;11.18;;;6.43;;
35552;SDS011;21656;46.054;13.614;2023-02-11T12:44:17;10.18;;;6.75;;
35552;SDS011;21656;46.054;13.614;2023-02-11T12:46:50;11.52;;;7.25;;
35552;SDS011;21656;46.054;13.614;2023-02-11T12:55:39;13.90;;;7.22;;
35552;SDS011;21656;46.054;13.614;2023-02-11T12:58:10;10.13;;;6.45;;
35552;SDS011;21656;46.054;13.614;2023-02-11T13:00:48;12.65;;;7.03;;
35552;SDS011;21656;46.054;13.614;2023-02-11T13:08:28;11.73;;;7.43;;
35552;SDS011;21656;46.054;13.614;2023-02-11T13:10:58;12.07;;;6.72;;
35552;SDS011;21656;46.054;13.614;2023-02-11T13:13:34;12.48;;;7.82;;
35552;SDS011;21656;46.054;13.614;2023-02-11T13:16:32;13.98;;;7.75;;
35552;SDS011;21656;46.054;13.614;2023-02-11T13:22:11;14.65;;;8.52;;
35552;SDS011;21656;46.054;13.614;2023-02-11T13:24:43;15.63;;;8.98;;
35552;SDS011;21656;46.054;13.614;2023-02-11T13:27:22;15.88;;;8.30;;
35552;SDS011;21656;46.054;13.614;2023-02-11T13:38:04;18.15;;;9.77;;
35552;SDS011;21656;46.054;13.614;2023-02-11T13:40:34;15.05;;;8.00;;
35552;SDS011;21656;46.054;13.614;2023-02-11T13:43:03;12.13;;;7.45;;
35552;SDS011;21656;46.054;13.614;2023-02-11T13:45:44;12.90;;;6.72;;
35552;SDS011;21656;46.054;13.614;2023-02-11T13:50:45;15.25;;;9.13;;
35552;SDS011;21656;46.054;13.614;2023-02-11T13:53:14;9.90;;;5.85;;
35552;SDS011;21656;46.054;13.614;2023-02-11T13:55:42;11.10;;;5.88;;
35552;SDS011;21656;46.054;13.614;2023-02-11T14:04:15;9.50;;;5.60;;
35552;SDS011;21656;46.054;13.614;2023-02-11T14:06:14;8.93;;;5.43;;
35552;SDS011;21656;46.054;13.614;2023-02-11T14:22:12;9.68;;;5.88;;
35552;SDS011;21656;46.054;13.614;2023-02-11T14:24:55;10.27;;;5.55;;
35552;SDS011;21656;46.054;13.614;2023-02-11T14:27:35;7.63;;;5.10;;
35552;SDS011;21656;46.054;13.614;2023-02-11T14:33:09;12.55;;;7.28;;
35552;SDS011;21656;46.054;13.614;2023-02-11T14:41:27;12.40;;;7.20;;
35552;SDS011;21656;46.054;13.614;2023-02-11T14:43:59;10.65;;;5.60;;
35552;SDS011;21656;46.054;13.614;2023-02-11T14:46:35;9.77;;;5.55;;
35552;SDS011;21656;46.054;13.614;2023-02-11T14:49:00;11.65;;;7.15;;
35552;SDS011;21656;46.054;13.614;2023-02-11T14:54:11;15.63;;;7.28;;
35552;SDS011;21656;46.054;13.614;2023-02-11T14:56:41;22.10;;;10.10;;
35552;SDS011;21656;46.054;13.614;2023-02-11T14:59:14;15.07;;;8.98;;
35552;SDS011;21656;46.054;13.614;2023-02-11T15:01:43;18.95;;;9.02;;
35552;SDS011;21656;46.054;13.614;2023-02-11T15:04:29;17.48;;;9.80;;
35552;SDS011;21656;46.054;13.614;2023-02-11T15:06:56;19.98;;;10.65;;
35552;SDS011;21656;46.054;13.614;2023-02-11T15:11:53;21.23;;;10.27;;
35552;SDS011;21656;46.054;13.614;2023-02-11T15:14:23;16.50;;;7.93;;
35552;SDS011;21656;46.054;13.614;2023-02-11T15:16:57;11.50;;;6.85;;
35552;SDS011;21656;46.054;13.614;2023-02-11T15:19:37;13.48;;;7.22;;
35552;SDS011;21656;46.054;13.614;2023-02-11T15:22:24;10.82;;;6.13;;
35552;SDS011;21656;46.054;13.614;2023-02-11T15:25:00;21.95;;;11.73;;
35552;SDS011;21656;46.054;13.614;2023-02-11T15:30:38;13.55;;;5.40;;
35552;SDS011;21656;46.054;13.614;2023-02-11T15:33:03;11.70;;;5.90;;
35552;SDS011;21656;46.054;13.614;2023-02-11T15:35:34;14.20;;;7.07;;
35552;SDS011;21656;46.054;13.614;2023-02-11T15:40:30;10.80;;;5.63;;
35552;SDS011;21656;46.054;13.614;2023-02-11T15:42:59;11.13;;;6.32;;
35552;SDS011;21656;46.054;13.614;2023-02-11T15:47:56;13.07;;;7.68;;
35552;SDS011;21656;46.054;13.614;2023-02-11T15:50:24;11.45;;;6.88;;
35552;SDS011;21656;46.054;13.614;2023-02-11T15:52:55;15.55;;;7.75;;
35552;SDS011;21656;46.054;13.614;2023-02-11T15:55:24;14.20;;;7.43;;
35552;SDS011;21656;46.054;13.614;2023-02-11T15:57:56;13.45;;;6.85;;
35552;SDS011;21656;46.054;13.614;2023-02-11T16:00:28;11.18;;;6.32;;
35552;SDS011;21656;46.054;13.614;2023-02-11T16:03:00;13.75;;;7.63;;
35552;SDS011;21656;46.054;13.614;2023-02-11T16:05:30;18.80;;;8.88;;
35552;SDS011;21656;46.054;13.614;2023-02-11T16:08:00;20.17;;;10.48;;
35552;SDS011;21656;46.054;13.614;2023-02-11T16:10:36;15.38;;;8.90;;
35552;SDS011;21656;46.054;13.614;2023-02-11T16:18:02;137.90;;;54.72;;
35552;SDS011;21656;46.054;13.614;2023-02-11T16:20:37;90.60;;;36.30;;
35552;SDS011;21656;46.054;13.614;2023-02-11T16:23:03;166.45;;;56.78;;
35552;SDS011;21656;46.054;13.614;2023-02-11T16:25:30;163.88;;;59.08;;
35552;SDS011;21656;46.054;13.614;2023-02-11T16:27:58;586.20;;;262.17;;
35552;SDS011;21656;46.054;13.614;2023-02-11T16:30:29;461.98;;;180.15;;
35552;SDS011;21656;46.054;13.614;2023-02-11T16:32:59;333.25;;;122.50;;
35552;SDS011;21656;46.054;13.614;2023-02-11T16:35:24;184.13;;;69.38;;
35552;SDS011;21656;46.054;13.614;2023-02-11T16:37:50;243.50;;;92.45;;
35552;SDS011;21656;46.054;13.614;2023-02-11T16:40:15;281.40;;;104.00;;
35552;SDS011;21656;46.054;13.614;2023-02-11T16:42:41;214.68;;;82.50;;
35552;SDS011;21656;46.054;13.614;2023-02-11T16:45:07;156.60;;;58.75;;
35552;SDS011;21656;46.054;13.614;2023-02-11T16:47:33;93.22;;;41.05;;
35552;SDS011;21656;46.054;13.614;2023-02-11T16:49:59;72.68;;;37.08;;
35552;SDS011;21656;46.054;13.614;2023-02-11T16:52:25;17.20;;;9.38;;
35552;SDS011;21656;46.054;13.614;2023-02-11T16:54:50;12.82;;;7.32;;
35552;SDS011;21656;46.054;13.614;2023-02-11T16:57:17;13.13;;;8.25;;
35552;SDS011;21656;46.054;13.614;2023-02-11T16:59:50;15.05;;;8.50;;
35552;SDS011;21656;46.054;13.614;2023-02-11T17:02:21;13.10;;;7.38;;
35552;SDS011;21656;46.054;13.614;2023-02-11T17:04:52;21.15;;;11.30;;
35552;SDS011;21656;46.054;13.614;2023-02-11T17:07:19;40.72;;;18.50;;
35552;SDS011;21656;46.054;13.614;2023-02-11T17:09:44;39.35;;;19.33;;
35552;SDS011;21656;46.054;13.614;2023-02-11T17:12:10;34.78;;;20.80;;
35552;SDS011;21656;46.054;13.614;2023-02-11T17:14:35;20.70;;;11.35;;
35552;SDS011;21656;46.054;13.614;2023-02-11T17:17:00;19.33;;;11.25;;
35552;SDS011;21656;46.054;13.614;2023-02-11T17:19:26;55.53;;;31.67;;
35552;SDS011;21656;46.054;13.614;2023-02-11T17:21:51;68.45;;;37.45;;
35552;SDS011;21656;46.054;13.614;2023-02-11T17:24:18;73.70;;;35.80;;
35552;SDS011;21656;46.054;13.614;2023-02-11T17:26:44;52.55;;;30.02;;
35552;SDS011;21656;46.054;13.614;2023-02-11T17:29:12;40.13;;;23.27;;
35552;SDS011;21656;46.054;13.614;2023-02-11T17:31:39;29.90;;;17.60;;
35552;SDS011;21656;46.054;13.614;2023-02-11T17:34:05;21.40;;;13.32;;
35552;SDS011;21656;46.054;13.614;2023-02-11T17:36:31;13.90;;;7.45;;
35552;SDS011;21656;46.054;13.614;2023-02-11T17:38:57;12.98;;;7.43;;
35552;SDS011;21656;46.054;13.614;2023-02-11T17:41:24;16.92;;;10.20;;
35552;SDS011;21656;46.054;13.614;2023-02-11T17:43:49;30.85;;;18.15;;
35552;SDS011;21656;46.054;13.614;2023-02-11T17:46:15;18.13;;;11.10;;
35552;SDS011;21656;46.054;13.614;2023-02-11T17:48:40;17.83;;;11.43;;
35552;SDS011;21656;46.054;13.614;2023-02-11T17:51:18;36.85;;;19.30;;
35552;SDS011;21656;46.054;13.614;2023-02-11T17:53:45;42.55;;;23.20;;
35552;SDS011;21656;46.054;13.614;2023-02-11T17:56:11;43.50;;;24.50;;
35552;SDS011;21656;46.054;13.614;2023-02-11T17:58:36;23.60;;;14.10;;
35552;SDS011;21656;46.054;13.614;2023-02-11T18:01:02;18.38;;;11.75;;
35552;SDS011;21656;46.054;13.614;2023-02-11T18:03:27;15.55;;;9.77;;
35552;SDS011;21656;46.054;13.614;2023-02-11T18:05:53;11.68;;;7.07;;
35552;SDS011;21656;46.054;13.614;2023-02-11T18:08:24;13.40;;;8.25;;
35552;SDS011;21656;46.054;13.614;2023-02-11T18:10:49;15.10;;;8.10;;
35552;SDS011;21656;46.054;13.614;2023-02-11T18:13:14;12.02;;;7.10;;
35552;SDS011;21656;46.054;13.614;2023-02-11T18:15:40;11.52;;;7.68;;
35552;SDS011;21656;46.054;13.614;2023-02-11T18:18:05;10.73;;;6.80;;
35552;SDS011;21656;46.054;13.614;2023-02-11T18:20:31;14.65;;;6.85;;
35552;SDS011;21656;46.054;13.614;2023-02-11T18:22:56;9.25;;;5.85;;
35552;SDS011;21656;46.054;13.614;2023-02-11T18:25:22;11.35;;;7.15;;
35552;SDS011;21656;46.054;13.614;2023-02-11T18:27:47;10.93;;;7.43;;
35552;SDS011;21656;46.054;13.614;2023-02-11T18:30:13;14.25;;;9.30;;
35552;SDS011;21656;46.054;13.614;2023-02-11T18:32:40;31.15;;;15.27;;
35552;SDS011;21656;46.054;13.614;2023-02-11T18:35:08;42.58;;;20.48;;
35552;SDS011;21656;46.054;13.614;2023-02-11T18:37:37;13.27;;;8.45;;
35552;SDS011;21656;46.054;13.614;2023-02-11T18:40:03;11.32;;;6.07;;
35552;SDS011;21656;46.054;13.614;2023-02-11T18:42:29;13.15;;;6.70;;
35552;SDS011;21656;46.054;13.614;2023-02-11T18:44:54;13.88;;;7.10;;
35552;SDS011;21656;46.054;13.614;2023-02-11T18:47:19;19.27;;;10.23;;
35552;SDS011;21656;46.054;13.614;2023-02-11T18:49:45;56.38;;;22.23;;
35552;SDS011;21656;46.054;13.614;2023-02-11T18:52:10;85.40;;;30.10;;
35552;SDS011;21656;46.054;13.614;2023-02-11T18:54:36;65.57;;;28.38;;
35552;SDS011;21656;46.054;13.614;2023-02-11T18:57:01;28.52;;;15.50;;
35552;SDS011;21656;46.054;13.614;2023-02-11T18:59:27;58.28;;;27.95;;
35552;SDS011;21656;46.054;13.614;2023-02-11T19:01:52;66.57;;;32.42;;
35552;SDS011;21656;46.054;13.614;2023-02-11T19:04:18;64.88;;;30.92;;
35552;SDS011;21656;46.054;13.614;2023-02-11T19:06:45;235.48;;;84.53;;
35552;SDS011;21656;46.054;13.614;2023-02-11T19:09:14;178.30;;;63.88;;
35552;SDS011;21656;46.054;13.614;2023-02-11T19:11:41;226.85;;;84.45;;
35552;SDS011;21656;46.054;13.614;2023-02-11T19:14:22;183.52;;;68.15;;
35552;SDS011;21656;46.054;13.614;2023-02-11T19:16:50;154.95;;;54.72;;
35552;SDS011;21656;46.054;13.614;2023-02-11T19:19:17;132.43;;;46.42;;
35552;SDS011;21656;46.054;13.614;2023-02-11T19:21:44;47.97;;;20.20;;
35552;SDS011;21656;46.054;13.614;2023-02-11T19:24:12;73.82;;;34.80;;
35552;SDS011;21656;46.054;13.614;2023-02-11T19:26:43;47.75;;;23.45;;
35552;SDS011;21656;46.054;13.614;2023-02-11T19:29:10;51.13;;;25.20;;
35552;SDS011;21656;46.054;13.614;2023-02-11T19:31:36;27.90;;;14.27;;
35552;SDS011;21656;46.054;13.614;2023-02-11T19:34:02;42.33;;;18.77;;
35552;SDS011;21656;46.054;13.614;2023-02-11T19:36:28;93.70;;;40.85;;
35552;SDS011;21656;46.054;13.614;2023-02-11T19:38:53;47.15;;;22.45;;
35552;SDS011;21656;46.054;13.614;2023-02-11T19:41:19;49.17;;;22.73;;
35552;SDS011;21656;46.054;13.614;2023-02-11T19:43:50;73.93;;;32.45;;
35552;SDS011;21656;46.054;13.614;2023-02-11T19:46:20;87.78;;;38.88;;
35552;SDS011;21656;46.054;13.614;2023-02-11T19:48:46;86.32;;;41.65;;
35552;SDS011;21656;46.054;13.614;2023-02-11T19:51:12;161.20;;;67.00;;
35552;SDS011;21656;46.054;13.614;2023-02-11T19:53:38;95.55;;;41.78;;
35552;SDS011;21656;46.054;13.614;2023-02-11T19:56:04;94.32;;;43.35;;
35552;SDS011;21656;46.054;13.614;2023-02-11T19:58:33;40.08;;;21.92;;
35552;SDS011;21656;46.054;13.614;2023-02-11T20:01:03;22.20;;;11.60;;
35552;SDS011;21656;46.054;13.614;2023-02-11T20:03:33;32.47;;;17.65;;
35552;SDS011;21656;46.054;13.614;2023-02-11T20:05:59;18.10;;;10.30;;
35552;SDS011;21656;46.054;13.614;2023-02-11T20:08:24;46.28;;;24.92;;
35552;SDS011;21656;46.054;13.614;2023-02-11T20:10:49;92.70;;;45.42;;
35552;SDS011;21656;46.054;13.614;2023-02-11T20:13:15;22.33;;;13.48;;
35552;SDS011;21656;46.054;13.614;2023-02-11T20:15:40;19.75;;;11.50;;
35552;SDS011;21656;46.054;13.614;2023-02-11T20:18:06;23.50;;;12.93;;
35552;SDS011;21656;46.054;13.614;2023-02-11T20:20:31;22.15;;;12.05;;
35552;SDS011;21656;46.054;13.614;2023-02-11T20:22:57;26.27;;;16.27;;
35552;SDS011;21656;46.054;13.614;2023-02-11T20:25:22;37.13;;;19.90;;
35552;SDS011;21656;46.054;13.614;2023-02-11T20:27:48;83.57;;;44.50;;
35552;SDS011;21656;46.054;13.614;2023-02-11T20:30:14;33.72;;;19.23;;
35552;SDS011;21656;46.054;13.614;2023-02-11T20:32:40;49.38;;;25.25;;
35552;SDS011;21656;46.054;13.614;2023-02-11T20:35:06;44.90;;;21.73;;
35552;SDS011;21656;46.054;13.614;2023-02-11T20:37:32;32.05;;;16.85;;
35552;SDS011;21656;46.054;13.614;2023-02-11T20:39:58;35.83;;;20.25;;
35552;SDS011;21656;46.054;13.614;2023-02-11T20:42:24;27.27;;;15.55;;
35552;SDS011;21656;46.054;13.614;2023-02-11T20:44:50;18.83;;;10.70;;
35552;SDS011;21656;46.054;13.614;2023-02-11T20:47:16;19.63;;;10.15;;
35552;SDS011;21656;46.054;13.614;2023-02-11T20:49:41;22.30;;;11.10;;
35552;SDS011;21656;46.054;13.614;2023-02-11T20:52:06;21.92;;;12.98;;
35552;SDS011;21656;46.054;13.614;2023-02-11T20:54:32;23.42;;;12.27;;
35552;SDS011;21656;46.054;13.614;2023-02-11T20:56:58;26.02;;;13.30;;
35552;SDS011;21656;46.054;13.614;2023-02-11T20:59:24;25.10;;;14.18;;
35552;SDS011;21656;46.054;13.614;2023-02-11T21:01:51;49.95;;;27.15;;
35552;SDS011;21656;46.054;13.614;2023-02-11T21:04:20;17.67;;;9.20;;
35552;SDS011;21656;46.054;13.614;2023-02-11T21:06:50;11.50;;;6.60;;
35552;SDS011;21656;46.054;13.614;2023-02-11T21:09:19;15.90;;;8.70;;
35552;SDS011;21656;46.054;13.614;2023-02-11T21:11:47;19.05;;;11.25;;
35552;SDS011;21656;46.054;13.614;2023-02-11T21:14:15;15.82;;;9.40;;
35552;SDS011;21656;46.054;13.614;2023-02-11T21:16:42;14.00;;;8.30;;
35552;SDS011;21656;46.054;13.614;2023-02-11T21:19:08;39.97;;;18.92;;
35552;SDS011;21656;46.054;13.614;2023-02-11T21:21:34;17.00;;;8.93;;
35552;SDS011;21656;46.054;13.614;2023-02-11T21:24:00;90.30;;;33.25;;
35552;SDS011;21656;46.054;13.614;2023-02-11T21:26:27;176.48;;;64.63;;
35552;SDS011;21656;46.054;13.614;2023-02-11T21:28:52;29.70;;;15.85;;
35552;SDS011;21656;46.054;13.614;2023-02-11T21:31:27;21.05;;;12.27;;
35552;SDS011;21656;46.054;13.614;2023-02-11T21:33:54;21.17;;;12.25;;
35552;SDS011;21656;46.054;13.614;2023-02-11T21:36:23;30.98;;;15.93;;
35552;SDS011;21656;46.054;13.614;2023-02-11T21:38:49;60.10;;;25.90;;
35552;SDS011;21656;46.054;13.614;2023-02-11T21:41:15;117.22;;;46.60;;
35552;SDS011;21656;46.054;13.614;2023-02-11T21:43:41;105.72;;;43.10;;
35552;SDS011;21656;46.054;13.614;2023-02-11T21:46:07;95.05;;;44.55;;
35552;SDS011;21656;46.054;13.614;2023-02-11T21:48:34;69.72;;;33.67;;
35552;SDS011;21656;46.054;13.614;2023-02-11T21:51:02;71.78;;;31.13;;
35552;SDS011;21656;46.054;13.614;2023-02-11T21:53:32;263.48;;;81.57;;
35552;SDS011;21656;46.054;13.614;2023-02-11T21:56:06;224.63;;;72.60;;
35552;SDS011;21656;46.054;13.614;2023-02-11T21:58:33;149.13;;;50.63;;
35552;SDS011;21656;46.054;13.614;2023-02-11T22:00:59;135.63;;;46.67;;
35552;SDS011;21656;46.054;13.614;2023-02-11T22:03:25;69.05;;;26.23;;
35552;SDS011;21656;46.054;13.614;2023-02-11T22:05:51;92.32;;;36.58;;
35552;SDS011;21656;46.054;13.614;2023-02-11T22:08:17;111.85;;;45.10;;
35552;SDS011;21656;46.054;13.614;2023-02-11T22:10:42;201.48;;;71.47;;
35552;SDS011;21656;46.054;13.614;2023-02-11T22:13:07;156.90;;;61.33;;
35552;SDS011;21656;46.054;13.614;2023-02-11T22:15:33;61.40;;;26.33;;
35552;SDS011;21656;46.054;13.614;2023-02-11T22:17:58;40.10;;;18.98;;
35552;SDS011;21656;46.054;13.614;2023-02-11T22:20:24;36.33;;;16.13;;
35552;SDS011;21656;46.054;13.614;2023-02-11T22:22:49;28.55;;;15.95;;
35552;SDS011;21656;46.054;13.614;2023-02-11T22:25:15;34.92;;;14.85;;
35552;SDS011;21656;46.054;13.614;2023-02-11T22:27:41;41.92;;;18.05;;
35552;SDS011;21656;46.054;13.614;2023-02-11T22:30:07;43.55;;;21.52;;
35552;SDS011;21656;46.054;13.614;2023-02-11T22:32:34;39.15;;;18.55;;
35552;SDS011;21656;46.054;13.614;2023-02-11T22:35:00;39.67;;;17.42;;
35552;SDS011;21656;46.054;13.614;2023-02-11T22:37:25;33.70;;;18.17;;
35552;SDS011;21656;46.054;13.614;2023-02-11T22:39:50;47.58;;;21.52;;
35552;SDS011;21656;46.054;13.614;2023-02-11T22:42:16;51.95;;;23.85;;
35552;SDS011;21656;46.054;13.614;2023-02-11T22:44:41;59.30;;;25.90;;
